createdAt,value
2023-04-27T00:02:08.489Z,7.00
2023-04-27T00:04:37.740Z,6.90
2023-04-27T00:07:05.924Z,6.90
2023-04-27T00:09:33.818Z,6.90
2023-04-27T00:12:01.933Z,6.90
2023-04-27T00:14:29.860Z,6.80
2023-04-27T00:16:59.236Z,6.80
2023-04-27T00:19:28.280Z,6.80
2023-04-27T00:21:57.998Z,6.70
2023-04-27T00:24:25.990Z,6.70
2023-04-27T00:26:53.840Z,6.70
2023-04-27T00:29:21.707Z,6.70
2023-04-27T00:31:49.673Z,6.60
2023-04-27T00:34:18.924Z,6.60
2023-04-27T00:36:46.889Z,6.60
2023-04-27T00:39:15.087Z,6.60
2023-04-27T00:41:43.188Z,6.50
2023-04-27T00:44:11.071Z,6.50
2023-04-27T00:46:39.059Z,6.50
2023-04-27T00:49:07.031Z,6.40
2023-04-27T00:51:36.738Z,6.40
2023-04-27T00:54:06.063Z,6.40
2023-04-27T00:56:33.986Z,6.40
2023-04-27T00:59:01.953Z,6.40
2023-04-27T01:01:31.090Z,6.30
2023-04-27T01:04:00.005Z,6.30
2023-04-27T01:06:29.745Z,6.30
2023-04-27T01:08:59.100Z,6.20
2023-04-27T01:11:26.981Z,6.20
2023-04-27T01:13:56.910Z,6.20
2023-04-27T01:16:24.844Z,6.20
2023-04-27T01:18:52.776Z,6.10
2023-04-27T01:21:20.665Z,6.10
2023-04-27T01:23:49.891Z,6.10
2023-04-27T01:26:17.743Z,6.10
2023-04-27T01:28:45.973Z,6.10
2023-04-27T01:31:14.882Z,6.00
2023-04-27T01:33:43.284Z,6.00
2023-04-27T01:36:11.727Z,6.00
2023-04-27T01:38:39.767Z,5.90
2023-04-27T01:41:09.304Z,5.90
2023-04-27T01:43:38.005Z,5.90
2023-04-27T01:46:09.310Z,5.90
2023-04-27T01:48:37.432Z,5.80
2023-04-27T01:51:05.434Z,5.80
2023-04-27T01:53:33.378Z,5.80
2023-04-27T01:56:01.431Z,5.80
2023-04-27T01:58:31.016Z,5.80
2023-04-27T02:00:58.928Z,5.70
2023-04-27T02:03:26.942Z,5.70
2023-04-27T02:05:55.039Z,5.70
2023-04-27T02:08:22.956Z,5.70
2023-04-27T02:10:50.885Z,5.70
2023-04-27T02:13:18.864Z,5.60
2023-04-27T02:15:48.242Z,5.60
2023-04-27T02:18:16.152Z,5.60
2023-04-27T02:20:44.106Z,5.60
2023-04-27T02:23:12.378Z,5.60
2023-04-27T02:25:42.940Z,5.50
2023-04-27T02:28:10.965Z,5.50
2023-04-27T02:30:39.755Z,5.50
2023-04-27T02:33:09.120Z,5.50
2023-04-27T02:35:36.983Z,5.50
2023-04-27T02:38:04.829Z,5.50
2023-04-27T02:40:32.679Z,5.40
2023-04-27T02:43:00.587Z,5.40
2023-04-27T02:45:28.588Z,5.40
2023-04-27T02:47:56.507Z,5.40
2023-04-27T02:50:25.867Z,5.40
2023-04-27T02:52:53.859Z,5.30
2023-04-27T02:55:21.950Z,5.30
2023-04-27T02:57:49.812Z,5.30
2023-04-27T03:00:18.942Z,5.30
2023-04-27T03:02:47.258Z,5.30
2023-04-27T03:05:15.315Z,5.30
2023-04-27T03:07:44.601Z,5.30
2023-04-27T03:10:12.455Z,5.30
2023-04-27T03:12:40.363Z,5.30
2023-04-27T03:15:09.258Z,5.20
2023-04-27T03:17:37.205Z,5.20
2023-04-27T03:20:08.542Z,5.20
2023-04-27T03:22:36.528Z,5.20
2023-04-27T03:25:06.915Z,5.20
2023-04-27T03:27:35.069Z,5.20
2023-04-27T03:30:03.550Z,5.10
2023-04-27T03:32:31.546Z,5.20
2023-04-27T03:34:59.535Z,5.10
2023-04-27T03:37:28.133Z,5.10
2023-04-27T03:39:56.034Z,5.10
2023-04-27T03:42:25.320Z,5.10
2023-04-27T03:44:53.170Z,5.00
2023-04-27T03:47:21.097Z,5.00
2023-04-27T03:49:49.251Z,5.00
2023-04-27T03:52:17.154Z,5.00
2023-04-27T03:54:45.068Z,5.00
2023-04-27T03:57:12.956Z,5.00
2023-04-27T03:59:42.403Z,4.90
2023-04-27T04:02:11.581Z,4.90
2023-04-27T04:04:39.701Z,4.90
2023-04-27T04:07:07.726Z,4.90
2023-04-27T04:09:35.739Z,4.90
2023-04-27T04:12:03.752Z,4.90
2023-04-27T04:14:31.735Z,4.90
2023-04-27T04:17:01.372Z,4.90
2023-04-27T04:19:29.287Z,4.90
2023-04-27T04:21:57.831Z,4.80
2023-04-27T04:24:25.727Z,4.80
2023-04-27T04:26:53.579Z,4.80
2023-04-27T04:29:21.902Z,4.80
2023-04-27T04:31:49.958Z,4.80
2023-04-27T04:34:19.398Z,4.80
2023-04-27T04:36:47.321Z,4.70
2023-04-27T04:39:15.936Z,4.70
2023-04-27T04:41:44.060Z,4.70
2023-04-27T04:44:11.926Z,4.70
2023-04-27T04:46:39.870Z,4.70
2023-04-27T04:49:07.866Z,4.70
2023-04-27T04:51:37.152Z,4.70
2023-04-27T04:54:05.352Z,4.70
2023-04-27T04:56:33.171Z,4.70
2023-04-27T04:59:01.127Z,4.60
2023-04-27T05:01:29.199Z,4.60
2023-04-27T05:03:57.231Z,4.60
2023-04-27T05:06:25.223Z,4.60
2023-04-27T05:08:54.495Z,4.60
2023-04-27T05:11:22.627Z,4.60
2023-04-27T05:13:50.519Z,4.60
2023-04-27T05:16:18.552Z,4.60
2023-04-27T05:18:46.483Z,4.60
2023-04-27T05:21:20.634Z,4.60
2023-04-27T05:23:48.659Z,4.60
2023-04-27T05:26:19.056Z,4.60
2023-04-27T05:28:49.302Z,4.60
2023-04-27T05:31:17.257Z,4.60
2023-04-27T05:33:45.581Z,4.70
2023-04-27T05:36:13.580Z,4.70
2023-04-27T05:38:41.599Z,4.70
2023-04-27T05:41:09.476Z,4.70
2023-04-27T05:43:39.050Z,4.70
2023-04-27T05:46:07.115Z,4.70
2023-04-27T05:48:35.490Z,4.70
2023-04-27T05:51:04.395Z,4.70
2023-04-27T05:53:33.554Z,4.70
2023-04-27T05:56:04.308Z,4.70
2023-04-27T05:58:33.040Z,4.70
2023-04-27T06:01:03.581Z,4.70
2023-04-27T06:03:32.235Z,4.70
2023-04-27T06:06:01.872Z,4.80
2023-04-27T06:08:30.720Z,4.90
2023-04-27T06:10:58.689Z,5.00
2023-04-27T06:13:27.016Z,5.10
2023-04-27T06:15:55.253Z,5.20
2023-04-27T06:18:24.503Z,5.30
2023-04-27T06:20:52.448Z,5.30
2023-04-27T06:23:20.379Z,5.40
2023-04-27T06:25:48.332Z,5.40
2023-04-27T06:28:16.458Z,5.50
2023-04-27T06:30:44.336Z,5.50
2023-04-27T06:33:12.311Z,5.60
2023-04-27T06:35:41.865Z,5.60
2023-04-27T06:38:09.695Z,5.70
2023-04-27T06:40:37.851Z,5.80
2023-04-27T06:43:05.800Z,5.90
2023-04-27T06:45:33.722Z,5.90
2023-04-27T06:48:01.734Z,6.00
2023-04-27T06:50:30.517Z,6.10
2023-04-27T06:52:59.759Z,6.10
2023-04-27T06:55:27.955Z,6.20
2023-04-27T06:57:55.934Z,6.20
2023-04-27T07:00:24.151Z,6.30
2023-04-27T07:02:52.508Z,6.40
2023-04-27T07:05:20.584Z,6.50
2023-04-27T07:07:48.454Z,6.60
2023-04-27T07:10:17.810Z,6.60
2023-04-27T07:12:45.805Z,6.60
2023-04-27T07:15:13.780Z,6.70
2023-04-27T07:17:41.737Z,6.70
2023-04-27T07:20:10.479Z,6.80
2023-04-27T07:22:38.367Z,6.90
2023-04-27T07:25:07.405Z,6.90
2023-04-27T07:27:36.700Z,7.00
2023-04-27T07:30:05.519Z,7.00
2023-04-27T07:32:33.520Z,7.10
2023-04-27T07:35:01.746Z,7.10
2023-04-27T07:37:29.832Z,7.20
2023-04-27T07:39:57.702Z,7.20
2023-04-27T07:42:26.015Z,7.30
2023-04-27T07:44:55.262Z,7.30
2023-04-27T07:47:23.860Z,7.30
2023-04-27T07:49:52.942Z,7.40
2023-04-27T07:52:20.947Z,7.40
2023-04-27T07:54:48.868Z,7.50
2023-04-27T07:57:16.752Z,7.50
2023-04-27T07:59:44.659Z,7.60
2023-04-27T08:02:19.551Z,7.70
2023-04-27T08:04:48.535Z,7.70
2023-04-27T08:07:17.806Z,7.80
2023-04-27T08:09:46.140Z,7.90
2023-04-27T08:12:14.038Z,7.90
2023-04-27T08:14:41.997Z,8.00
2023-04-27T08:17:09.867Z,8.00
2023-04-27T08:19:40.054Z,8.10
2023-04-27T08:22:08.513Z,8.20
2023-04-27T08:24:36.476Z,8.20
2023-04-27T08:27:04.506Z,8.30
2023-04-27T08:29:32.666Z,8.40
2023-04-27T08:32:02.532Z,8.40
2023-04-27T08:34:31.008Z,8.50
2023-04-27T08:37:00.339Z,8.60
2023-04-27T08:39:28.830Z,8.60
2023-04-27T08:41:56.841Z,8.70
2023-04-27T08:44:24.791Z,8.80
2023-04-27T08:46:52.949Z,8.80
2023-04-27T08:49:22.013Z,8.90
2023-04-27T08:51:50.017Z,8.90
2023-04-27T08:54:20.484Z,9.00
2023-04-27T08:56:48.378Z,9.10
2023-04-27T08:59:17.831Z,9.10
2023-04-27T09:01:46.958Z,9.20
2023-04-27T09:04:15.775Z,9.30
2023-04-27T09:06:43.936Z,9.30
2023-04-27T09:09:22.348Z,9.40
2023-04-27T09:11:51.730Z,9.50
2023-04-27T09:14:21.203Z,9.50
2023-04-27T09:16:57.400Z,9.60
2023-04-27T09:19:25.827Z,9.70
2023-04-27T09:22:05.389Z,9.70
2023-04-27T09:24:33.615Z,9.80
2023-04-27T09:27:05.059Z,9.90
2023-04-27T09:29:37.445Z,9.90
2023-04-27T09:32:17.138Z,10.00
2023-04-27T09:34:45.623Z,10.10
2023-04-27T09:37:14.285Z,10.20
2023-04-27T09:39:43.353Z,10.30
2023-04-27T09:42:13.860Z,10.30
2023-04-27T09:44:41.878Z,10.40
2023-04-27T09:47:11.748Z,10.50
2023-04-27T09:49:39.675Z,10.60
2023-04-27T09:52:07.563Z,10.60
2023-04-27T09:54:36.658Z,10.70
2023-04-27T09:57:15.957Z,10.80
2023-04-27T10:00:02.488Z,10.80
2023-04-27T10:02:52.222Z,10.90
2023-04-27T10:05:37.848Z,11.00
2023-04-27T10:08:07.152Z,11.10
2023-04-27T10:10:44.539Z,11.20
2023-04-27T10:13:22.761Z,11.20
2023-04-27T10:15:51.272Z,11.30
2023-04-27T10:18:30.029Z,11.40
2023-04-27T10:20:59.330Z,11.50
2023-04-27T10:23:27.703Z,11.60
2023-04-27T10:25:57.285Z,11.70
2023-04-27T10:28:27.928Z,11.70
2023-04-27T10:30:55.907Z,11.80
2023-04-27T10:33:24.804Z,11.90
2023-04-27T10:35:57.260Z,12.00
2023-04-27T10:38:30.007Z,12.10
2023-04-27T10:41:01.524Z,12.20
2023-04-27T10:43:32.270Z,12.30
2023-04-27T10:46:09.122Z,12.40
2023-04-27T10:48:37.228Z,12.50
2023-04-27T10:51:06.402Z,12.60
2023-04-27T10:53:37.923Z,12.60
2023-04-27T10:56:07.161Z,12.70
2023-04-27T10:58:47.996Z,12.80
2023-04-27T11:01:25.408Z,12.90
2023-04-27T11:03:57.129Z,12.90
2023-04-27T11:06:25.260Z,13.00
2023-04-27T11:08:53.289Z,13.10
2023-04-27T11:11:22.573Z,13.20
2023-04-27T11:13:52.897Z,13.30
2023-04-27T11:16:21.035Z,13.30
2023-04-27T11:18:49.159Z,13.40
2023-04-27T11:21:20.345Z,13.50
2023-04-27T11:23:48.513Z,13.60
2023-04-27T11:26:18.063Z,13.70
2023-04-27T11:28:57.928Z,13.80
2023-04-27T11:31:27.725Z,13.80
2023-04-27T11:33:56.365Z,14.00
2023-04-27T11:36:26.670Z,14.00
2023-04-27T11:38:59.833Z,14.10
2023-04-27T11:41:35.222Z,14.20
2023-04-27T11:44:07.505Z,14.30
2023-04-27T11:46:38.182Z,14.30
2023-04-27T11:49:08.688Z,14.40
2023-04-27T11:51:37.667Z,14.50
2023-04-27T11:54:07.298Z,14.50
2023-04-27T11:56:37.432Z,14.60
2023-04-27T11:59:06.058Z,14.60
2023-04-27T12:01:38.074Z,14.70
2023-04-27T12:04:08.219Z,14.80
2023-04-27T12:06:36.570Z,14.90
2023-04-27T12:09:05.218Z,14.90
2023-04-27T12:11:33.689Z,15.00
2023-04-27T12:14:01.552Z,15.00
2023-04-27T12:16:29.558Z,15.10
2023-04-27T12:18:58.004Z,15.10
2023-04-27T12:21:27.343Z,15.20
2023-04-27T12:23:55.315Z,15.30
2023-04-27T12:26:23.295Z,15.40
2023-04-27T12:28:51.246Z,15.50
2023-04-27T12:31:26.929Z,15.50
2023-04-27T12:33:55.793Z,15.60
2023-04-27T12:36:23.800Z,15.60
2023-04-27T12:38:53.442Z,15.70
2023-04-27T12:41:23.088Z,15.70
2023-04-27T12:43:51.327Z,15.80
2023-04-27T12:46:19.654Z,15.90
2023-04-27T12:48:47.747Z,15.90
2023-04-27T12:51:16.632Z,16.00
2023-04-27T12:53:44.631Z,16.00
2023-04-27T12:56:14.143Z,16.10
2023-04-27T12:58:42.088Z,16.20
2023-04-27T13:01:14.767Z,16.20
2023-04-27T13:03:42.961Z,16.30
2023-04-27T13:06:11.307Z,16.30
2023-04-27T13:08:39.532Z,16.40
2023-04-27T13:11:07.548Z,16.40
2023-04-27T13:13:36.824Z,16.40
2023-04-27T13:16:05.173Z,16.40
2023-04-27T13:18:34.905Z,16.50
2023-04-27T13:21:04.005Z,16.50
2023-04-27T13:23:32.097Z,16.60
2023-04-27T13:26:00.159Z,16.60
2023-04-27T13:28:28.164Z,16.60
2023-04-27T13:30:59.587Z,16.70
2023-04-27T13:33:28.117Z,16.70
2023-04-27T13:36:02.091Z,16.70
2023-04-27T13:38:29.989Z,16.80
2023-04-27T13:40:57.922Z,16.80
2023-04-27T13:43:27.047Z,16.80
2023-04-27T13:45:55.123Z,16.90
2023-04-27T13:48:24.466Z,16.90
2023-04-27T13:50:52.553Z,17.00
2023-04-27T13:53:20.868Z,17.00
2023-04-27T13:55:49.003Z,17.10
2023-04-27T13:58:17.025Z,17.10
2023-04-27T14:00:44.996Z,17.10
2023-04-27T14:03:13.243Z,17.10
2023-04-27T14:05:42.527Z,17.20
2023-04-27T14:08:10.559Z,17.20
2023-04-27T14:10:39.116Z,17.20
2023-04-27T14:13:07.068Z,17.20
2023-04-27T14:15:37.236Z,17.20
2023-04-27T14:18:07.373Z,17.30
2023-04-27T14:20:35.633Z,17.30
2023-04-27T14:23:05.883Z,17.30
2023-04-27T14:25:34.587Z,17.40
2023-04-27T14:28:03.814Z,17.40
2023-04-27T14:30:32.684Z,17.40
2023-04-27T14:33:00.830Z,17.50
2023-04-27T14:35:29.233Z,17.40
2023-04-27T14:38:02.059Z,17.30
2023-04-27T14:40:34.257Z,17.20
2023-04-27T14:43:02.222Z,17.20
2023-04-27T14:45:39.816Z,17.40
2023-04-27T14:48:11.833Z,17.50
2023-04-27T14:50:39.913Z,17.50
2023-04-27T14:53:07.800Z,17.60
2023-04-27T14:55:37.194Z,17.60
2023-04-27T14:58:05.113Z,17.60
2023-04-27T15:00:33.079Z,17.70
2023-04-27T15:03:01.003Z,17.70
2023-04-27T15:05:28.989Z,17.70
2023-04-27T15:07:56.973Z,17.70
2023-04-27T15:10:24.880Z,17.80
2023-04-27T15:12:54.138Z,17.80
2023-04-27T15:15:22.043Z,17.80
2023-04-27T15:17:50.020Z,17.80
2023-04-27T15:20:18.614Z,17.80
2023-04-27T15:22:46.887Z,17.80
2023-04-27T15:25:14.866Z,17.80
2023-04-27T15:27:42.753Z,17.80
2023-04-27T15:30:12.813Z,17.80
2023-04-27T15:32:40.778Z,17.80
2023-04-27T15:35:09.600Z,17.90
2023-04-27T15:37:37.936Z,17.90
2023-04-27T15:40:07.460Z,17.90
2023-04-27T15:42:35.390Z,17.90
2023-04-27T15:45:03.946Z,17.90
2023-04-27T15:47:33.199Z,17.90
2023-04-27T15:50:01.159Z,17.90
2023-04-27T15:52:29.071Z,17.90
2023-04-27T15:54:57.246Z,17.90
2023-04-27T15:57:25.418Z,17.90
2023-04-27T15:59:53.558Z,17.90
2023-04-27T16:02:21.614Z,17.90
2023-04-27T16:04:51.224Z,17.90
2023-04-27T16:07:20.957Z,17.90
2023-04-27T16:09:48.903Z,17.90
2023-04-27T16:12:16.923Z,17.90
2023-04-27T16:14:44.897Z,17.80
2023-04-27T16:17:13.000Z,17.80
2023-04-27T16:19:40.974Z,17.80
2023-04-27T16:22:10.438Z,17.80
2023-04-27T16:24:38.335Z,17.80
2023-04-27T16:27:06.305Z,17.80
2023-04-27T16:29:34.314Z,17.80
2023-04-27T16:32:02.554Z,17.70
2023-04-27T16:34:30.542Z,17.70
2023-04-27T16:36:58.479Z,17.70
2023-04-27T16:39:27.698Z,17.60
2023-04-27T16:41:55.583Z,17.60
2023-04-27T16:44:23.911Z,17.50
2023-04-27T16:46:52.479Z,17.50
2023-04-27T16:49:20.351Z,17.40
2023-04-27T16:51:48.284Z,17.30
2023-04-27T16:54:16.910Z,17.30
2023-04-27T16:56:47.912Z,17.20
2023-04-27T16:59:17.107Z,17.20
2023-04-27T17:01:45.146Z,17.10
2023-04-27T17:04:13.167Z,17.10
2023-04-27T17:06:41.492Z,17.00
2023-04-27T17:09:10.201Z,16.90
2023-04-27T17:11:38.387Z,16.90
2023-04-27T17:14:07.671Z,16.80
2023-04-27T17:16:35.590Z,16.70
2023-04-27T17:19:03.891Z,16.70
2023-04-27T17:21:32.434Z,16.60
2023-04-27T17:24:00.739Z,16.60
2023-04-27T17:26:28.904Z,16.50
2023-04-27T17:28:59.906Z,16.50
2023-04-27T17:31:29.360Z,16.40
2023-04-27T17:33:57.275Z,16.30
2023-04-27T17:36:25.148Z,16.30
2023-04-27T17:38:53.979Z,16.20
2023-04-27T17:41:21.946Z,16.10
2023-04-27T17:43:50.117Z,16.10
2023-04-27T17:46:17.988Z,16.00
2023-04-27T17:48:47.339Z,16.00
2023-04-27T17:51:15.737Z,15.90
2023-04-27T17:53:43.742Z,15.80
2023-04-27T17:56:11.608Z,15.70
2023-04-27T17:58:39.484Z,15.70
2023-04-27T18:01:10.037Z,15.60
2023-04-27T18:03:38.182Z,15.60
2023-04-27T18:06:08.083Z,15.50
2023-04-27T18:08:35.919Z,15.40
2023-04-27T18:11:03.943Z,15.40
2023-04-27T18:13:32.576Z,15.30
2023-04-27T18:16:00.749Z,15.20
2023-04-27T18:18:29.311Z,15.20
2023-04-27T18:20:57.200Z,15.10
2023-04-27T18:23:27.011Z,15.00
2023-04-27T18:25:59.190Z,15.00
2023-04-27T18:28:27.168Z,14.90
2023-04-27T18:30:55.103Z,14.90
2023-04-27T18:33:23.023Z,14.80
2023-04-27T18:35:52.072Z,14.70
2023-04-27T18:38:20.014Z,14.60
2023-04-27T18:40:49.316Z,14.60
2023-04-27T18:43:17.244Z,14.50
2023-04-27T18:45:45.283Z,14.50
2023-04-27T18:48:13.194Z,14.40
2023-04-27T18:50:41.079Z,14.40
2023-04-27T18:53:08.962Z,14.30
2023-04-27T18:55:36.900Z,14.20
2023-04-27T18:58:06.264Z,14.20
2023-04-27T19:00:34.191Z,14.10
2023-04-27T19:03:02.217Z,14.10
2023-04-27T19:05:30.484Z,14.00
2023-04-27T19:07:58.650Z,13.90
2023-04-27T19:10:26.658Z,13.90
2023-04-27T19:12:56.026Z,13.90
2023-04-27T19:15:25.747Z,13.80
2023-04-27T19:18:02.919Z,13.70
2023-04-27T19:20:38.317Z,13.70
2023-04-27T19:23:07.876Z,13.60
2023-04-27T19:25:36.080Z,13.60
2023-04-27T19:28:05.719Z,13.60
2023-04-27T19:30:35.313Z,13.50
2023-04-27T19:33:04.295Z,13.50
2023-04-27T19:35:32.310Z,13.40
2023-04-27T19:38:00.267Z,13.40
2023-04-27T19:40:28.146Z,13.30
2023-04-27T19:42:56.375Z,13.30
2023-04-27T19:45:24.494Z,13.20
2023-04-27T19:47:54.147Z,13.20
2023-04-27T19:50:22.450Z,13.10
2023-04-27T19:52:50.418Z,13.10
2023-04-27T19:55:18.608Z,13.00
2023-04-27T19:57:46.591Z,13.00
2023-04-27T20:00:15.156Z,13.00
2023-04-27T20:02:43.553Z,12.90
2023-04-27T20:05:13.603Z,12.90
2023-04-27T20:07:42.667Z,12.80
2023-04-27T20:10:11.052Z,12.80
2023-04-27T20:12:54.358Z,12.80
2023-04-27T20:15:23.949Z,12.70
2023-04-27T20:17:51.905Z,12.60
2023-04-27T20:20:21.708Z,12.60
2023-04-27T20:22:49.632Z,12.60
2023-04-27T20:25:19.533Z,12.60
2023-04-27T20:27:47.785Z,12.50
2023-04-27T20:30:16.013Z,12.50
2023-04-27T20:32:43.959Z,12.40
2023-04-27T20:35:13.767Z,12.40
2023-04-27T20:37:44.386Z,12.40
2023-04-27T20:40:17.289Z,12.30
2023-04-27T20:42:45.782Z,12.30
2023-04-27T20:45:13.901Z,12.30
2023-04-27T20:47:42.145Z,12.20
2023-04-27T20:50:10.436Z,12.20
2023-04-27T20:52:38.628Z,12.20
2023-04-27T20:55:08.218Z,12.10
2023-04-27T20:57:36.204Z,12.10
2023-04-27T21:00:04.890Z,12.10
2023-04-27T21:02:32.964Z,12.00
2023-04-27T21:05:01.691Z,12.00
2023-04-27T21:07:29.782Z,12.00
2023-04-27T21:09:57.769Z,11.90
2023-04-27T21:12:27.171Z,11.90
2023-04-27T21:14:55.058Z,11.90
2023-04-27T21:17:23.027Z,11.80
2023-04-27T21:19:51.006Z,11.80
2023-04-27T21:22:19.029Z,11.80
2023-04-27T21:24:47.596Z,11.70
2023-04-27T21:27:15.542Z,11.70
2023-04-27T21:29:44.822Z,11.70
2023-04-27T21:32:12.788Z,11.70
2023-04-27T21:34:40.783Z,11.60
2023-04-27T21:37:08.675Z,11.60
2023-04-27T21:39:36.857Z,11.60
2023-04-27T21:42:05.087Z,11.60
2023-04-27T21:44:32.948Z,11.50
2023-04-27T21:47:02.331Z,11.50
2023-04-27T21:49:30.354Z,11.50
2023-04-27T21:51:58.350Z,11.50
2023-04-27T21:54:26.279Z,11.40
2023-04-27T21:56:54.240Z,11.50
2023-04-27T21:59:22.398Z,11.40
2023-04-27T22:01:50.453Z,11.40
2023-04-27T22:04:20.437Z,11.40
2023-04-27T22:06:48.824Z,11.30
2023-04-27T22:09:16.948Z,11.30
2023-04-27T22:11:44.898Z,11.30
2023-04-27T22:14:12.977Z,11.30
2023-04-27T22:16:41.219Z,11.20
2023-04-27T22:19:09.239Z,11.30
2023-04-27T22:21:38.883Z,11.20
2023-04-27T22:24:07.241Z,11.20
2023-04-27T22:26:35.189Z,11.20
2023-04-27T22:29:03.110Z,11.20
2023-04-27T22:31:32.525Z,11.20
2023-04-27T22:34:00.750Z,11.20
2023-04-27T22:36:29.337Z,11.10
2023-04-27T22:38:58.933Z,11.10
2023-04-27T22:41:26.859Z,11.10
2023-04-27T22:43:54.830Z,11.00
2023-04-27T22:46:23.624Z,11.00
2023-04-27T22:48:52.969Z,11.00
2023-04-27T22:51:21.721Z,11.00
2023-04-27T22:53:50.075Z,11.00
2023-04-27T22:56:19.298Z,11.00
2023-04-27T22:58:47.606Z,11.00
2023-04-27T23:01:15.672Z,10.90
2023-04-27T23:03:43.755Z,10.90
2023-04-27T23:06:14.210Z,10.90
2023-04-27T23:08:44.731Z,10.90
2023-04-27T23:11:15.387Z,10.90
2023-04-27T23:13:48.025Z,10.80
2023-04-27T23:16:16.062Z,10.80
2023-04-27T23:18:44.017Z,10.80
2023-04-27T23:21:12.291Z,10.80
2023-04-27T23:23:40.138Z,10.80
2023-04-27T23:26:14.147Z,10.80
2023-04-27T23:28:42.077Z,10.80
2023-04-27T23:31:11.747Z,10.70
2023-04-27T23:33:39.780Z,10.70
2023-04-27T23:36:08.172Z,10.70
2023-04-27T23:38:36.158Z,10.70
2023-04-27T23:41:04.125Z,10.70
2023-04-27T23:43:32.029Z,10.70
2023-04-27T23:46:00.027Z,10.60
2023-04-27T23:48:29.396Z,10.60
2023-04-27T23:51:01.461Z,10.60
2023-04-27T23:53:29.410Z,10.60
2023-04-27T23:55:57.718Z,10.60
2023-04-27T23:58:26.134Z,10.60
